createdAt,value
2023-12-21T00:00:19.809Z,95823.56
2023-12-21T00:01:24.887Z,95812.38
2023-12-21T00:02:27.664Z,95812.47
2023-12-21T00:03:36.200Z,95811.53
2023-12-21T00:04:38.832Z,95808.06
2023-12-21T00:05:44.170Z,95804.63
2023-12-21T00:06:46.884Z,95800.34
2023-12-21T00:07:52.588Z,95809.69
2023-12-21T00:08:55.622Z,95800.16
2023-12-21T00:10:00.950Z,95825.84
2023-12-21T00:11:03.810Z,95816.38
2023-12-21T00:12:09.807Z,95824.06
2023-12-21T00:13:12.476Z,95815.66
2023-12-21T00:14:17.720Z,95814.91
2023-12-21T00:15:20.555Z,95818.13
2023-12-21T00:16:27.442Z,95819.00
2023-12-21T00:17:30.826Z,95809.53
2023-12-21T00:18:38.888Z,95815.53
2023-12-21T00:19:41.758Z,95807.88
2023-12-21T00:20:47.258Z,95805.28
2023-12-21T00:21:49.902Z,95810.34
2023-12-21T00:22:55.315Z,95804.44
2023-12-21T00:23:57.925Z,95806.22
2023-12-21T00:25:03.385Z,95801.19
2023-12-21T00:26:06.051Z,95790.81
2023-12-21T00:27:11.327Z,95809.59
2023-12-21T00:28:14.143Z,95791.75
2023-12-21T00:29:19.684Z,95796.03
2023-12-21T00:30:22.339Z,95795.16
2023-12-21T00:31:27.862Z,95800.38
2023-12-21T00:32:30.558Z,95798.69
2023-12-21T00:33:39.127Z,95800.38
2023-12-21T00:34:41.760Z,95803.75
2023-12-21T00:35:46.799Z,95792.75
2023-12-21T00:36:49.327Z,95796.16
2023-12-21T00:37:54.596Z,95799.66
2023-12-21T00:38:57.166Z,95803.16
2023-12-21T00:39:59.845Z,95796.38
2023-12-21T00:41:05.148Z,95793.88
2023-12-21T00:42:08.034Z,95798.25
2023-12-21T00:43:13.669Z,95802.69
2023-12-21T00:44:16.399Z,95796.66
2023-12-21T00:45:22.289Z,95791.53
2023-12-21T00:46:24.998Z,95801.13
2023-12-21T00:47:30.315Z,95800.31
2023-12-21T00:48:35.681Z,95802.06
2023-12-21T00:49:38.505Z,95798.69
2023-12-21T00:50:43.945Z,95800.41
2023-12-21T00:51:46.483Z,95789.22
2023-12-21T00:52:48.998Z,95796.13
2023-12-21T00:53:54.205Z,95788.50
2023-12-21T00:54:56.841Z,95794.44
2023-12-21T00:56:02.118Z,95781.72
2023-12-21T00:57:07.423Z,95783.47
2023-12-21T00:58:13.698Z,95797.09
2023-12-21T00:59:17.246Z,95791.06
2023-12-21T01:00:23.108Z,95788.44
2023-12-21T01:01:25.858Z,95786.66
2023-12-21T01:02:31.092Z,95792.69
2023-12-21T01:03:36.363Z,95792.72
2023-12-21T01:04:42.841Z,95784.09
2023-12-21T01:05:45.318Z,95784.13
2023-12-21T01:06:50.690Z,95768.00
2023-12-21T01:07:53.239Z,95772.38
2023-12-21T01:08:58.603Z,95774.97
2023-12-21T01:10:01.433Z,95773.22
2023-12-21T01:11:07.394Z,95771.56
2023-12-21T01:12:09.994Z,95763.06
2023-12-21T01:13:15.461Z,95769.94
2023-12-21T01:14:18.810Z,95775.22
2023-12-21T01:15:23.964Z,95770.22
2023-12-21T01:16:27.222Z,95788.91
2023-12-21T01:17:32.649Z,95777.00
2023-12-21T01:18:38.832Z,95778.00
2023-12-21T01:19:44.145Z,95761.06
2023-12-21T01:20:47.129Z,95772.22
2023-12-21T01:21:52.249Z,95771.34
2023-12-21T01:22:55.018Z,95765.34
2023-12-21T01:24:00.267Z,95758.59
2023-12-21T01:25:03.076Z,95745.00
2023-12-21T01:26:08.559Z,95762.16
2023-12-21T01:27:21.622Z,95753.59
2023-12-21T01:28:32.263Z,95753.66
2023-12-21T01:29:34.869Z,95752.00
2023-12-21T01:30:40.162Z,95760.53
2023-12-21T01:31:42.821Z,95750.28
2023-12-21T01:32:48.340Z,95739.22
2023-12-21T01:33:53.764Z,95745.16
2023-12-21T01:34:59.358Z,95739.22
2023-12-21T01:36:02.332Z,95735.66
2023-12-21T01:37:08.016Z,95744.22
2023-12-21T01:38:10.631Z,95736.53
2023-12-21T01:39:15.963Z,95745.06
2023-12-21T01:40:18.725Z,95739.97
2023-12-21T01:41:24.049Z,95748.53
2023-12-21T01:42:26.743Z,95753.75
2023-12-21T01:43:31.653Z,95750.38
2023-12-21T01:44:34.333Z,95747.78
2023-12-21T01:45:39.568Z,95741.78
2023-12-21T01:46:42.890Z,95745.16
2023-12-21T01:47:50.562Z,95737.47
2023-12-21T01:48:56.342Z,95740.03
2023-12-21T01:50:01.394Z,95739.22
2023-12-21T01:51:06.549Z,95744.38
2023-12-21T01:52:12.274Z,95746.91
2023-12-21T01:53:15.962Z,95738.38
2023-12-21T01:54:22.028Z,95737.47
2023-12-21T01:55:25.543Z,95733.25
2023-12-21T01:56:31.305Z,95738.47
2023-12-21T01:57:34.097Z,95730.78
2023-12-21T01:58:40.454Z,95726.50
2023-12-21T01:59:43.752Z,95728.22
2023-12-21T02:00:49.117Z,95733.34
2023-12-21T02:01:52.198Z,95716.28
2023-12-21T02:02:57.450Z,95712.06
2023-12-21T02:04:02.845Z,95712.94
2023-12-21T02:05:09.136Z,95712.94
2023-12-21T02:06:12.044Z,95712.03
2023-12-21T02:07:17.529Z,95712.94
2023-12-21T02:08:20.392Z,95718.91
2023-12-21T02:09:25.700Z,95711.25
2023-12-21T02:10:28.472Z,95700.22
2023-12-21T02:11:33.679Z,95711.25
2023-12-21T02:12:36.173Z,95701.81
2023-12-21T02:13:41.437Z,95702.63
2023-12-21T02:14:44.047Z,95703.53
2023-12-21T02:15:49.200Z,95702.69
2023-12-21T02:16:58.445Z,95702.69
2023-12-21T02:18:05.385Z,95712.03
2023-12-21T02:19:12.552Z,95704.34
2023-12-21T02:20:18.605Z,95708.66
2023-12-21T02:21:22.324Z,95706.91
2023-12-21T02:22:30.851Z,95696.69
2023-12-21T02:23:37.833Z,95699.25
2023-12-21T02:24:46.205Z,95699.16
2023-12-21T02:25:48.973Z,95698.31
2023-12-21T02:26:53.976Z,95684.69
2023-12-21T02:27:56.606Z,95685.53
2023-12-21T02:29:02.109Z,95688.09
2023-12-21T02:30:05.237Z,95675.28
2023-12-21T02:31:10.470Z,95675.16
2023-12-21T02:32:13.485Z,95681.19
2023-12-21T02:33:18.981Z,95681.13
2023-12-21T02:34:21.724Z,95677.72
2023-12-21T02:35:27.023Z,95668.22
2023-12-21T02:36:29.743Z,95673.34
2023-12-21T02:37:34.970Z,95662.19
2023-12-21T02:38:38.960Z,95669.03
2023-12-21T02:39:46.768Z,95668.91
2023-12-21T02:40:49.297Z,95645.88
2023-12-21T02:41:57.128Z,95656.03
2023-12-21T02:42:59.943Z,95644.13
2023-12-21T02:44:05.234Z,95649.25
2023-12-21T02:45:08.738Z,95649.34
2023-12-21T02:46:13.752Z,95638.28
2023-12-21T02:47:16.459Z,95661.25
2023-12-21T02:48:19.169Z,95647.56
2023-12-21T02:49:24.618Z,95643.25
2023-12-21T02:50:27.350Z,95642.44
2023-12-21T02:51:32.474Z,95643.22
2023-12-21T02:52:34.946Z,95635.53
2023-12-21T02:53:41.169Z,95632.91
2023-12-21T02:54:46.367Z,95627.75
2023-12-21T02:55:49.319Z,95631.19
2023-12-21T02:56:54.563Z,95632.97
2023-12-21T02:57:57.207Z,95621.88
2023-12-21T02:59:02.523Z,95621.88
2023-12-21T03:00:06.279Z,95613.28
2023-12-21T03:01:11.710Z,95617.41
2023-12-21T03:02:14.317Z,95616.56
2023-12-21T03:03:19.829Z,95614.88
2023-12-21T03:04:22.372Z,95602.84
2023-12-21T03:05:27.796Z,95606.31
2023-12-21T03:06:30.592Z,95597.63
2023-12-21T03:07:35.615Z,95605.38
2023-12-21T03:08:38.338Z,95603.69
2023-12-21T03:09:43.985Z,95579.81
2023-12-21T03:10:49.031Z,95583.16
2023-12-21T03:11:51.604Z,95581.44
2023-12-21T03:12:56.859Z,95574.53
2023-12-21T03:13:59.551Z,95577.91
2023-12-21T03:15:05.156Z,95584.69
2023-12-21T03:16:08.713Z,95583.88
2023-12-21T03:17:14.028Z,95573.63
2023-12-21T03:18:16.880Z,95580.41
2023-12-21T03:19:22.340Z,95576.09
2023-12-21T03:20:24.873Z,95579.47
2023-12-21T03:21:30.268Z,95579.47
2023-12-21T03:22:32.777Z,95572.69
2023-12-21T03:23:38.183Z,95580.38
2023-12-21T03:24:41.406Z,95568.38
2023-12-21T03:25:46.922Z,95558.97
2023-12-21T03:26:52.888Z,95564.13
2023-12-21T03:27:58.280Z,95563.25
2023-12-21T03:29:00.863Z,95575.19
2023-12-21T03:30:06.624Z,95569.97
2023-12-21T03:31:10.128Z,95561.44
2023-12-21T03:32:15.489Z,95560.53
2023-12-21T03:33:18.217Z,95556.28
2023-12-21T03:34:23.637Z,95564.78
2023-12-21T03:35:27.056Z,95562.16
2023-12-21T03:36:32.420Z,95557.91
2023-12-21T03:37:35.148Z,95559.34
2023-12-21T03:38:40.681Z,95552.41
2023-12-21T03:39:43.408Z,95559.28
2023-12-21T03:40:48.497Z,95555.88
2023-12-21T03:41:54.060Z,95557.44
2023-12-21T03:42:56.638Z,95553.28
2023-12-21T03:44:02.654Z,95545.41
2023-12-21T03:45:06.291Z,95537.63
2023-12-21T03:46:13.213Z,95535.97
2023-12-21T03:47:15.553Z,95531.72
2023-12-21T03:48:20.859Z,95532.47
2023-12-21T03:49:23.390Z,95523.13
2023-12-21T03:50:28.505Z,95529.16
2023-12-21T03:51:31.012Z,95522.34
2023-12-21T03:52:33.728Z,95538.56
2023-12-21T03:53:39.320Z,95530.94
2023-12-21T03:54:42.256Z,95535.16
2023-12-21T03:55:47.390Z,95539.31
2023-12-21T03:56:49.788Z,95541.88
2023-12-21T03:57:58.086Z,95534.97
2023-12-21T03:59:00.851Z,95533.28
2023-12-21T04:00:04.306Z,95530.75
2023-12-21T04:01:10.328Z,95539.31
2023-12-21T04:02:13.056Z,95531.53
2023-12-21T04:03:18.474Z,95522.09
2023-12-21T04:04:21.156Z,95522.22
2023-12-21T04:05:26.798Z,95513.63
2023-12-21T04:06:29.309Z,95511.06
2023-12-21T04:07:34.477Z,95513.56
2023-12-21T04:08:36.922Z,95502.28
2023-12-21T04:09:42.949Z,95510.81
2023-12-21T04:10:45.645Z,95508.94
2023-12-21T04:11:50.654Z,95496.09
2023-12-21T04:12:55.695Z,95500.44
2023-12-21T04:14:00.646Z,95513.25
2023-12-21T04:15:03.618Z,95526.88
2023-12-21T04:16:10.832Z,95524.31
2023-12-21T04:17:13.408Z,95518.25
2023-12-21T04:18:15.976Z,95507.91
2023-12-21T04:19:22.753Z,95509.66
2023-12-21T04:20:25.356Z,95501.94
2023-12-21T04:21:30.461Z,95509.44
2023-12-21T04:22:32.935Z,95497.53
2023-12-21T04:23:38.337Z,95501.06
2023-12-21T04:24:42.279Z,95499.34
2023-12-21T04:25:47.590Z,95496.91
2023-12-21T04:26:49.996Z,95488.41
2023-12-21T04:27:57.773Z,95495.22
2023-12-21T04:29:00.614Z,95491.84
2023-12-21T04:30:06.215Z,95476.63
2023-12-21T04:31:08.823Z,95471.56
2023-12-21T04:32:14.191Z,95474.94
2023-12-21T04:33:18.515Z,95476.56
2023-12-21T04:34:23.774Z,95468.84
2023-12-21T04:35:26.546Z,95483.19
2023-12-21T04:36:31.519Z,95476.38
2023-12-21T04:37:33.924Z,95467.78
2023-12-21T04:38:38.842Z,95465.25
2023-12-21T04:39:41.443Z,95461.00
2023-12-21T04:40:47.137Z,95452.53
2023-12-21T04:41:51.430Z,95456.81
2023-12-21T04:42:57.238Z,95450.81
2023-12-21T04:44:02.553Z,95446.56
2023-12-21T04:45:06.085Z,95454.31
2023-12-21T04:46:11.794Z,95455.22
2023-12-21T04:47:22.813Z,95447.38
2023-12-21T04:48:29.674Z,95442.25
2023-12-21T04:49:32.360Z,95450.81
2023-12-21T04:50:37.799Z,95453.34
2023-12-21T04:51:40.407Z,95449.84
2023-12-21T04:52:46.111Z,95435.19
2023-12-21T04:53:48.964Z,95449.63
2023-12-21T04:54:54.338Z,95442.00
2023-12-21T04:55:56.982Z,95446.16
2023-12-21T04:57:02.610Z,95447.88
2023-12-21T04:58:08.129Z,95440.31
2023-12-21T04:59:11.061Z,95430.06
2023-12-21T05:00:17.260Z,95430.00
2023-12-21T05:01:19.979Z,95414.72
2023-12-21T05:02:25.247Z,95419.88
2023-12-21T05:03:27.780Z,95412.16
2023-12-21T05:04:33.019Z,95416.44
2023-12-21T05:05:35.377Z,95418.97
2023-12-21T05:06:40.396Z,95409.59
2023-12-21T05:07:42.949Z,95408.81
2023-12-21T05:08:48.341Z,95425.88
2023-12-21T05:09:50.991Z,95411.97
2023-12-21T05:10:56.646Z,95420.63
2023-12-21T05:11:59.169Z,95406.13
2023-12-21T05:13:04.575Z,95413.84
2023-12-21T05:14:09.952Z,95418.97
2023-12-21T05:15:12.529Z,95404.47
2023-12-21T05:16:17.990Z,95413.88
2023-12-21T05:17:21.112Z,95422.25
2023-12-21T05:18:26.384Z,95426.44
2023-12-21T05:19:29.035Z,95431.56
2023-12-21T05:20:34.179Z,95419.63
2023-12-21T05:21:36.637Z,95430.63
2023-12-21T05:22:42.098Z,95433.16
2023-12-21T05:23:44.827Z,95419.31
2023-12-21T05:24:49.764Z,95417.53
2023-12-21T05:25:52.337Z,95423.50
2023-12-21T05:26:57.468Z,95411.56
2023-12-21T05:27:59.991Z,95432.09
2023-12-21T05:29:05.396Z,95420.97
2023-12-21T05:30:12.147Z,95426.00
2023-12-21T05:31:17.666Z,95409.00
2023-12-21T05:32:20.375Z,95419.25
2023-12-21T05:33:25.824Z,95410.63
2023-12-21T05:34:28.365Z,95409.84
2023-12-21T05:35:34.088Z,95412.28
2023-12-21T05:36:36.652Z,95409.66
2023-12-21T05:37:42.155Z,95411.25
2023-12-21T05:38:44.768Z,95396.66
2023-12-21T05:39:50.933Z,95385.50
2023-12-21T05:40:53.711Z,95402.50
2023-12-21T05:41:59.038Z,95397.38
2023-12-21T05:43:01.936Z,95398.25
2023-12-21T05:44:07.489Z,95387.97
2023-12-21T05:45:13.032Z,95387.84
2023-12-21T05:46:18.024Z,95395.44
2023-12-21T05:47:20.966Z,95396.31
2023-12-21T05:48:26.585Z,95401.44
2023-12-21T05:49:29.318Z,95418.69
2023-12-21T05:50:34.592Z,95409.25
2023-12-21T05:51:37.201Z,95401.56
2023-12-21T05:52:42.421Z,95412.63
2023-12-21T05:53:45.746Z,95409.25
2023-12-21T05:54:50.919Z,95399.00
2023-12-21T05:55:53.607Z,95404.13
2023-12-21T05:56:59.740Z,95397.25
2023-12-21T05:58:02.586Z,95415.88
2023-12-21T05:59:08.105Z,95406.47
2023-12-21T06:00:14.981Z,95401.31
2023-12-21T06:01:20.600Z,95403.13
2023-12-21T06:02:23.263Z,95406.47
2023-12-21T06:03:28.538Z,95409.88
2023-12-21T06:04:31.881Z,95409.09
2023-12-21T06:05:37.247Z,95401.41
2023-12-21T06:06:40.153Z,95418.66
2023-12-21T06:07:45.667Z,95382.72
2023-12-21T06:08:48.777Z,95384.34
2023-12-21T06:09:53.964Z,95393.00
2023-12-21T06:10:56.545Z,95389.56
2023-12-21T06:12:02.014Z,95388.81
2023-12-21T06:13:04.958Z,95393.09
2023-12-21T06:14:07.660Z,95383.72
2023-12-21T06:15:16.003Z,95374.34
2023-12-21T06:16:18.745Z,95373.44
2023-12-21T06:17:23.793Z,95372.59
2023-12-21T06:18:26.413Z,95377.72
2023-12-21T06:19:31.535Z,95364.75
2023-12-21T06:20:36.564Z,95358.50
2023-12-21T06:21:42.113Z,95354.16
2023-12-21T06:22:44.770Z,95352.47
2023-12-21T06:23:50.279Z,95339.75
2023-12-21T06:24:52.747Z,95347.53
2023-12-21T06:25:57.977Z,95350.00
2023-12-21T06:27:00.547Z,95344.03
2023-12-21T06:28:05.510Z,95338.91
2023-12-21T06:29:08.090Z,95333.84
2023-12-21T06:30:16.464Z,95340.78
2023-12-21T06:31:19.041Z,95336.41
2023-12-21T06:32:26.167Z,95326.03
2023-12-21T06:33:28.671Z,95317.50
2023-12-21T06:34:34.035Z,95336.31
2023-12-21T06:35:37.598Z,95326.81
2023-12-21T06:36:43.123Z,95320.78
2023-12-21T06:37:46.216Z,95297.44
2023-12-21T06:38:52.083Z,95299.00
2023-12-21T06:39:56.035Z,95290.44
2023-12-21T06:41:01.211Z,95288.84
2023-12-21T06:42:03.814Z,95277.56
2023-12-21T06:43:09.125Z,95286.09
2023-12-21T06:44:12.489Z,95280.19
2023-12-21T06:45:20.643Z,95286.06
2023-12-21T06:46:23.598Z,95291.22
2023-12-21T06:47:28.829Z,95291.19
2023-12-21T06:48:31.726Z,95286.06
2023-12-21T06:49:37.397Z,95286.06
2023-12-21T06:50:40.362Z,95271.41
2023-12-21T06:51:46.648Z,95290.22
2023-12-21T06:52:49.789Z,95274.59
2023-12-21T06:53:55.611Z,95274.50
2023-12-21T06:54:59.041Z,95270.16
2023-12-21T06:56:14.075Z,95276.19
2023-12-21T06:57:27.344Z,95270.84
2023-12-21T06:58:30.247Z,95261.53
2023-12-21T06:59:35.759Z,95257.19
2023-12-21T07:00:41.452Z,95258.81
2023-12-21T07:01:46.323Z,95264.88
2023-12-21T07:02:50.036Z,95275.25
2023-12-21T07:03:55.069Z,95282.09
2023-12-21T07:04:57.794Z,95286.38
2023-12-21T07:06:03.013Z,95264.75
2023-12-21T07:07:06.820Z,95275.88
2023-12-21T07:08:09.714Z,95261.19
2023-12-21T07:09:15.461Z,95259.63
2023-12-21T07:10:17.799Z,95254.50
2023-12-21T07:11:23.066Z,95234.78
2023-12-21T07:12:27.844Z,95255.28
2023-12-21T07:13:32.790Z,95249.38
2023-12-21T07:14:35.676Z,95246.53
2023-12-21T07:15:41.076Z,95257.59
2023-12-21T07:16:46.400Z,95244.81
2023-12-21T07:17:49.635Z,95245.53
2023-12-21T07:18:55.396Z,95246.94
2023-12-21T07:19:58.011Z,95230.78
2023-12-21T07:21:03.144Z,95250.28
2023-12-21T07:22:06.534Z,95223.75
2023-12-21T07:23:11.568Z,95247.56
2023-12-21T07:24:14.321Z,95255.41
2023-12-21T07:25:19.457Z,95248.75
2023-12-21T07:26:21.703Z,95239.22
2023-12-21T07:27:23.969Z,95239.88
2023-12-21T07:28:30.184Z,95247.53
2023-12-21T07:29:32.553Z,95232.94
2023-12-21T07:30:37.350Z,95238.03
2023-12-21T07:31:42.470Z,95233.72
2023-12-21T07:32:47.443Z,95224.91
2023-12-21T07:33:49.950Z,95226.66
2023-12-21T07:34:54.947Z,95226.66
2023-12-21T07:35:57.167Z,95236.94
2023-12-21T07:37:02.016Z,95239.50
2023-12-21T07:38:04.551Z,95238.59
2023-12-21T07:39:09.816Z,95247.81
2023-12-21T07:40:13.086Z,95241.03
2023-12-21T07:41:17.981Z,95221.31
2023-12-21T07:42:20.193Z,95227.28
2023-12-21T07:43:25.354Z,95212.06
2023-12-21T07:44:27.611Z,95225.88
2023-12-21T07:45:29.731Z,95230.09
2023-12-21T07:46:34.617Z,95218.94
2023-12-21T07:47:39.562Z,95207.75
2023-12-21T07:48:44.357Z,95209.28
2023-12-21T07:49:46.607Z,95188.69
2023-12-21T07:50:48.890Z,95195.56
2023-12-21T07:51:53.610Z,95199.88
2023-12-21T07:52:57.856Z,95205.84
2023-12-21T07:54:02.761Z,95215.78
2023-12-21T07:55:06.544Z,95188.28
2023-12-21T07:56:12.025Z,95195.94
2023-12-21T07:57:15.643Z,95193.38
2023-12-21T07:58:20.451Z,95197.59
2023-12-21T07:59:23.914Z,95215.56
2023-12-21T08:00:28.832Z,95190.66
2023-12-21T08:01:31.020Z,95218.00
2023-12-21T08:02:35.777Z,95207.69
2023-12-21T08:03:40.602Z,95192.03
2023-12-21T08:04:45.502Z,95190.31
2023-12-21T08:05:47.812Z,95175.75
2023-12-21T08:06:52.635Z,95193.59
2023-12-21T08:07:54.818Z,95187.66
2023-12-21T08:08:59.645Z,95195.38
2023-12-21T08:10:03.482Z,95182.47
2023-12-21T08:11:08.460Z,95182.19
2023-12-21T08:12:10.705Z,95185.31
2023-12-21T08:13:15.692Z,95146.06
2023-12-21T08:14:17.913Z,95182.97
2023-12-21T08:15:22.744Z,95192.34
2023-12-21T08:16:25.026Z,95171.09
2023-12-21T08:17:29.947Z,95175.50
2023-12-21T08:18:32.313Z,95186.66
2023-12-21T08:19:37.329Z,95175.31
2023-12-21T08:20:44.003Z,95159.91
2023-12-21T08:21:46.576Z,95177.75
2023-12-21T08:22:51.577Z,95149.34
2023-12-21T08:23:54.107Z,95167.31
2023-12-21T08:24:59.643Z,95167.28
2023-12-21T08:26:01.938Z,95164.63
2023-12-21T08:27:07.514Z,95159.63
2023-12-21T08:28:09.783Z,95159.56
2023-12-21T08:29:15.136Z,95174.22
2023-12-21T08:30:19.475Z,95160.53
2023-12-21T08:31:30.176Z,95169.16
2023-12-21T08:32:32.394Z,95165.38
2023-12-21T08:33:35.327Z,95167.03
2023-12-21T08:34:43.068Z,95175.53
2023-12-21T08:35:45.265Z,95150.59
2023-12-21T08:36:50.036Z,95165.19
2023-12-21T08:37:52.307Z,95160.09
2023-12-21T08:38:57.063Z,95161.03
2023-12-21T08:40:00.035Z,95162.81
2023-12-21T08:41:05.665Z,95168.88
2023-12-21T08:42:10.017Z,95163.59
2023-12-21T08:43:15.524Z,95165.38
2023-12-21T08:44:17.829Z,95173.19
2023-12-21T08:45:23.108Z,95160.09
2023-12-21T08:46:25.564Z,95169.56
2023-12-21T08:47:31.013Z,95163.44
2023-12-21T08:48:33.550Z,95165.94
2023-12-21T08:49:38.374Z,95165.94
2023-12-21T08:50:43.686Z,95166.16
2023-12-21T08:51:48.555Z,95169.69
2023-12-21T08:52:51.063Z,95165.38
2023-12-21T08:53:56.292Z,95173.88
2023-12-21T08:54:58.517Z,95182.28
2023-12-21T08:56:03.332Z,95175.38
2023-12-21T08:57:05.886Z,95166.16
2023-12-21T08:58:09.439Z,95165.31
2023-12-21T08:59:14.273Z,95160.25
2023-12-21T09:00:17.932Z,95166.97
2023-12-21T09:01:22.834Z,95168.72
2023-12-21T09:02:26.804Z,95156.69
2023-12-21T09:03:31.673Z,95158.44
2023-12-21T09:04:33.995Z,95155.72
2023-12-21T09:05:38.834Z,95147.94
2023-12-21T09:06:43.647Z,95144.53
2023-12-21T09:07:48.645Z,95144.38
2023-12-21T09:08:53.546Z,95137.44
2023-12-21T09:09:59.588Z,95141.75
2023-12-21T09:11:01.754Z,95132.31
2023-12-21T09:12:06.854Z,95134.97
2023-12-21T09:13:09.258Z,95138.38
2023-12-21T09:14:14.002Z,95127.16
2023-12-21T09:15:16.178Z,95136.63
2023-12-21T09:16:21.202Z,95120.22
2023-12-21T09:17:23.467Z,95145.84
2023-12-21T09:18:25.707Z,95133.00
2023-12-21T09:19:34.416Z,95117.50
2023-12-21T09:20:36.621Z,95120.91
2023-12-21T09:21:42.197Z,95108.97
2023-12-21T09:22:50.496Z,95111.38
2023-12-21T09:23:55.511Z,95114.63
2023-12-21T09:24:58.460Z,95101.78
2023-12-21T09:26:03.303Z,95100.13
2023-12-21T09:27:06.177Z,95093.91
2023-12-21T09:28:10.953Z,95090.59
2023-12-21T09:29:14.402Z,95089.84
2023-12-21T09:30:20.969Z,95082.91
2023-12-21T09:31:23.432Z,95083.78
2023-12-21T09:32:28.270Z,95074.13
2023-12-21T09:33:33.837Z,95049.22
2023-12-21T09:34:39.762Z,95069.75
2023-12-21T09:35:42.114Z,95073.19
2023-12-21T09:36:46.983Z,95066.19
2023-12-21T09:37:51.965Z,95074.72
2023-12-21T09:38:56.790Z,95094.38
2023-12-21T09:39:59.527Z,95086.53
2023-12-21T09:41:01.796Z,95090.69
2023-12-21T09:42:07.309Z,95096.50
2023-12-21T09:43:15.937Z,95092.28
2023-12-21T09:44:21.862Z,95084.41
2023-12-21T09:45:26.138Z,95080.09
2023-12-21T09:46:38.559Z,95065.38
2023-12-21T09:47:42.364Z,95064.50
2023-12-21T09:48:48.405Z,95062.78
2023-12-21T09:49:52.220Z,95035.00
2023-12-21T09:50:59.103Z,95070.06
2023-12-21T09:52:02.988Z,95036.66
2023-12-21T09:53:10.994Z,95016.78
2023-12-21T09:54:15.651Z,95034.53
2023-12-21T09:55:23.951Z,95024.19
2023-12-21T09:56:28.936Z,94997.53
2023-12-21T09:57:35.856Z,95016.16
2023-12-21T09:58:38.742Z,95009.88
2023-12-21T09:59:43.796Z,95016.59
2023-12-21T10:00:46.231Z,95021.69
2023-12-21T10:01:52.838Z,95014.94
2023-12-21T10:02:55.174Z,95007.38
2023-12-21T10:04:00.836Z,95007.22
2023-12-21T10:05:04.848Z,95015.53
2023-12-21T10:06:10.556Z,95012.88
2023-12-21T10:07:14.277Z,95001.44
2023-12-21T10:08:22.783Z,95003.25
2023-12-21T10:09:26.094Z,94992.78
2023-12-21T10:10:31.326Z,94997.13
2023-12-21T10:11:33.668Z,94999.63
2023-12-21T10:12:39.643Z,94999.63
2023-12-21T10:13:47.939Z,94986.66
2023-12-21T10:15:03.419Z,94986.50
2023-12-21T10:16:06.804Z,94970.06
2023-12-21T10:17:12.039Z,94987.19
2023-12-21T10:18:14.420Z,94967.03
2023-12-21T10:19:20.371Z,94964.28
2023-12-21T10:20:24.721Z,94966.75
2023-12-21T10:21:29.703Z,94949.72
2023-12-21T10:22:31.926Z,94949.00
2023-12-21T10:23:39.815Z,94953.81
2023-12-21T10:24:45.116Z,94956.63
2023-12-21T10:25:48.219Z,94940.25
2023-12-21T10:26:53.700Z,94932.78
2023-12-21T10:27:56.933Z,94945.50
2023-12-21T10:29:01.692Z,94941.16
2023-12-21T10:30:05.005Z,94944.50
2023-12-21T10:31:10.499Z,94941.81
2023-12-21T10:32:12.746Z,94916.94
2023-12-21T10:33:20.385Z,94929.72
2023-12-21T10:34:22.915Z,94919.25
2023-12-21T10:35:28.439Z,94909.88
2023-12-21T10:36:33.800Z,94903.72
2023-12-21T10:37:40.749Z,94893.31
2023-12-21T10:38:49.899Z,94888.69
2023-12-21T10:39:57.739Z,94890.16
2023-12-21T10:41:06.834Z,94879.84
2023-12-21T10:42:12.082Z,94880.72
2023-12-21T10:43:15.553Z,94879.03
2023-12-21T10:44:20.357Z,94864.09
2023-12-21T10:45:33.417Z,94880.19
2023-12-21T10:46:42.930Z,94857.78
2023-12-21T10:47:49.142Z,94867.50
2023-12-21T10:48:56.584Z,94836.00
2023-12-21T10:49:59.032Z,94825.78
2023-12-21T10:51:05.947Z,94868.38
2023-12-21T10:52:10.766Z,94847.06
2023-12-21T10:53:14.672Z,94840.97
2023-12-21T10:54:23.805Z,94828.94
2023-12-21T10:55:28.284Z,94846.06
2023-12-21T10:56:31.195Z,94839.81
2023-12-21T10:57:36.486Z,94832.25
2023-12-21T10:58:39.628Z,94826.03
2023-12-21T10:59:47.834Z,94819.19
2023-12-21T11:00:52.224Z,94802.94
2023-12-21T11:01:58.054Z,94809.81
2023-12-21T11:03:00.552Z,94806.25
2023-12-21T11:04:13.864Z,94793.28
2023-12-21T11:05:21.384Z,94796.03
2023-12-21T11:06:26.629Z,94820.59
2023-12-21T11:07:29.080Z,94794.03
2023-12-21T11:08:35.295Z,94751.88
2023-12-21T11:09:42.205Z,94788.50
2023-12-21T11:10:49.264Z,94775.81
2023-12-21T11:11:51.641Z,94770.66
2023-12-21T11:12:56.714Z,94788.69
2023-12-21T11:13:58.967Z,94767.91
2023-12-21T11:15:03.779Z,94778.97
2023-12-21T11:16:06.509Z,94763.69
2023-12-21T11:17:14.053Z,94786.75
2023-12-21T11:18:22.184Z,94741.41
2023-12-21T11:19:32.056Z,94758.34
2023-12-21T11:20:45.517Z,94728.44
2023-12-21T11:21:53.498Z,94719.97
2023-12-21T11:22:57.059Z,94736.25
2023-12-21T11:24:01.990Z,94723.47
2023-12-21T11:25:09.607Z,94725.03
2023-12-21T11:26:14.649Z,94759.28
2023-12-21T11:27:17.845Z,94730.19
2023-12-21T11:28:29.326Z,94722.47
2023-12-21T11:29:31.828Z,94720.72
2023-12-21T11:30:37.226Z,94728.25
2023-12-21T11:31:40.007Z,94716.19
2023-12-21T11:32:50.669Z,94696.53
2023-12-21T11:33:53.267Z,94712.63
2023-12-21T11:34:59.441Z,94693.69
2023-12-21T11:36:04.054Z,94701.50
2023-12-21T11:37:20.680Z,94700.38
2023-12-21T11:38:25.672Z,94724.31
2023-12-21T11:39:32.945Z,94705.47
2023-12-21T11:40:38.819Z,94719.91
2023-12-21T11:41:53.588Z,94711.06
2023-12-21T11:42:56.160Z,94716.22
2023-12-21T11:44:02.206Z,94704.19
2023-12-21T11:45:08.431Z,94723.78
2023-12-21T11:46:10.772Z,94709.06
2023-12-21T11:47:16.845Z,94700.50
2023-12-21T11:48:20.885Z,94698.94
2023-12-21T11:49:27.030Z,94729.22
2023-12-21T11:50:32.326Z,94709.50
2023-12-21T11:51:38.085Z,94710.53
2023-12-21T11:52:40.381Z,94699.94
2023-12-21T11:53:46.903Z,94721.19
2023-12-21T11:54:49.638Z,94728.22
2023-12-21T11:55:57.399Z,94699.47
2023-12-21T11:57:12.158Z,94683.53
2023-12-21T11:58:21.703Z,94689.19
2023-12-21T11:59:24.643Z,94663.59
2023-12-21T12:00:32.673Z,94674.91
2023-12-21T12:01:38.960Z,94665.78
2023-12-21T12:02:42.826Z,94664.88
2023-12-21T12:03:48.915Z,94704.44
2023-12-21T12:04:52.455Z,94659.25
2023-12-21T12:06:05.285Z,94671.50
2023-12-21T12:07:07.971Z,94663.84
2023-12-21T12:08:12.788Z,94665.22
2023-12-21T12:09:18.258Z,94662.06
2023-12-21T12:10:23.775Z,94663.19
2023-12-21T12:11:28.764Z,94643.09
2023-12-21T12:12:34.399Z,94679.22
2023-12-21T12:13:36.585Z,94640.88
2023-12-21T12:14:41.564Z,94656.50
2023-12-21T12:15:44.265Z,94648.78
2023-12-21T12:16:47.902Z,94646.38
2023-12-21T12:17:53.083Z,94641.22
2023-12-21T12:18:55.806Z,94632.56
2023-12-21T12:20:00.690Z,94624.97
2023-12-21T12:21:03.648Z,94644.88
2023-12-21T12:22:08.462Z,94616.50
2023-12-21T12:23:10.799Z,94613.16
2023-12-21T12:24:19.923Z,94605.56
2023-12-21T12:25:22.620Z,94597.00
2023-12-21T12:26:28.976Z,94597.91
2023-12-21T12:27:33.873Z,94605.72
2023-12-21T12:28:38.686Z,94603.22
2023-12-21T12:29:41.689Z,94590.38
2023-12-21T12:30:46.638Z,94617.03
2023-12-21T12:31:49.814Z,94601.75
2023-12-21T12:32:57.195Z,94606.81
2023-12-21T12:33:59.690Z,94601.75
2023-12-21T12:35:05.057Z,94550.19
2023-12-21T12:36:08.588Z,94591.38
2023-12-21T12:37:14.123Z,94598.34
2023-12-21T12:38:17.865Z,94585.47
2023-12-21T12:39:24.656Z,94594.03